<?xml version="1.0" encoding="UTF-8" standalone="no" ?>
<gpx xmlns="http://www.topografix.com/GPX/1/1" xmlns:xsi="http://www.w3.org/2001/XMLSchema-instance" xsi:schemaLocation="http://www.topografix.com/GPX/1/1 http://www.topografix.com/GPX/1/1/gpx.xsd" version="1.1" creator="VisuGPX - https://www.visugpx.com">
  <metadata>
    <name>2016-09-18 COL DU KREUTZWEG SAINT MARTIN</name>
    <desc><![CDATA[2016-09-18 COL DU KREUTZWEG SAINT MARTIN par Christian]]></desc>
  </metadata>
  <trk>
    <name><![CDATA[OR-8037734--Breitenbach:2016-09-18 COL DU KREUTZWEG SAINT MARTIN]]></name>
    <trkseg>
      <trkpt lat="48.36905" lon="7.2881">
        <ele>457</ele>
        <time>2017-10-23T21:45:16Z</time>
      </trkpt>
      <trkpt lat="48.36845" lon="7.2872">
        <ele>444</ele>
        <time>2017-10-23T21:47:16Z</time>
      </trkpt>
      <trkpt lat="48.36898" lon="7.28589">
        <ele>451</ele>
        <time>2017-10-23T21:49:16Z</time>
      </trkpt>
      <trkpt lat="48.36902" lon="7.28428">
        <ele>454</ele>
        <time>2017-10-23T21:51:16Z</time>
      </trkpt>
      <trkpt lat="48.3693" lon="7.28351">
        <ele>463</ele>
        <time>2017-10-23T21:53:16Z</time>
      </trkpt>
      <trkpt lat="48.36885" lon="7.28282">
        <ele>460</ele>
        <time>2017-10-23T21:55:16Z</time>
      </trkpt>
      <trkpt lat="48.36856" lon="7.28169">
        <ele>459</ele>
        <time>2017-10-23T21:57:16Z</time>
      </trkpt>
      <trkpt lat="48.36845" lon="7.27999">
        <ele>466</ele>
        <time>2017-10-23T21:59:16Z</time>
      </trkpt>
      <trkpt lat="48.36839" lon="7.2781">
        <ele>462</ele>
        <time>2017-10-23T22:01:16Z</time>
      </trkpt>
      <trkpt lat="48.36876" lon="7.27651">
        <ele>461</ele>
        <time>2017-10-23T22:03:16Z</time>
      </trkpt>
      <trkpt lat="48.36898" lon="7.27533">
        <ele>461</ele>
        <time>2017-10-23T22:05:16Z</time>
      </trkpt>
      <trkpt lat="48.36874" lon="7.27437">
        <ele>458</ele>
        <time>2017-10-23T22:07:16Z</time>
      </trkpt>
      <trkpt lat="48.37053" lon="7.27248">
        <ele>486</ele>
        <time>2017-10-23T22:09:16Z</time>
      </trkpt>
      <trkpt lat="48.37199" lon="7.27094">
        <ele>517</ele>
        <time>2017-10-23T22:11:16Z</time>
      </trkpt>
      <trkpt lat="48.37264" lon="7.27111">
        <ele>516</ele>
        <time>2017-10-23T22:13:16Z</time>
      </trkpt>
      <trkpt lat="48.37469" lon="7.27106">
        <ele>564</ele>
        <time>2017-10-23T22:15:16Z</time>
      </trkpt>
      <trkpt lat="48.37438" lon="7.27158">
        <ele>559</ele>
        <time>2017-10-23T22:17:16Z</time>
      </trkpt>
      <trkpt lat="48.37412" lon="7.27295">
        <ele>564</ele>
        <time>2017-10-23T22:19:16Z</time>
      </trkpt>
      <trkpt lat="48.37421" lon="7.27381">
        <ele>573</ele>
        <time>2017-10-23T22:21:16Z</time>
      </trkpt>
      <trkpt lat="48.37313" lon="7.27484">
        <ele>582</ele>
        <time>2017-10-23T22:23:16Z</time>
      </trkpt>
      <trkpt lat="48.37219" lon="7.27647">
        <ele>614</ele>
        <time>2017-10-23T22:25:16Z</time>
      </trkpt>
      <trkpt lat="48.3719" lon="7.27793">
        <ele>625</ele>
        <time>2017-10-23T22:27:16Z</time>
      </trkpt>
      <trkpt lat="48.3721" lon="7.27943">
        <ele>629</ele>
        <time>2017-10-23T22:29:16Z</time>
      </trkpt>
      <trkpt lat="48.3727" lon="7.28059">
        <ele>638</ele>
        <time>2017-10-23T22:31:16Z</time>
      </trkpt>
      <trkpt lat="48.37253" lon="7.27879">
        <ele>652</ele>
        <time>2017-10-23T22:33:16Z</time>
      </trkpt>
      <trkpt lat="48.37293" lon="7.27763">
        <ele>661</ele>
        <time>2017-10-23T22:35:16Z</time>
      </trkpt>
      <trkpt lat="48.37353" lon="7.27742">
        <ele>669</ele>
        <time>2017-10-23T22:37:16Z</time>
      </trkpt>
      <trkpt lat="48.37438" lon="7.2775">
        <ele>676</ele>
        <time>2017-10-23T22:39:16Z</time>
      </trkpt>
      <trkpt lat="48.37518" lon="7.27746">
        <ele>681</ele>
        <time>2017-10-23T22:41:16Z</time>
      </trkpt>
      <trkpt lat="48.37603" lon="7.2772">
        <ele>694</ele>
        <time>2017-10-23T22:43:16Z</time>
      </trkpt>
      <trkpt lat="48.3768" lon="7.27647">
        <ele>706</ele>
        <time>2017-10-23T22:45:16Z</time>
      </trkpt>
      <trkpt lat="48.37735" lon="7.2754">
        <ele>719</ele>
        <time>2017-10-23T22:47:16Z</time>
      </trkpt>
      <trkpt lat="48.37747" lon="7.27432">
        <ele>714</ele>
        <time>2017-10-23T22:49:16Z</time>
      </trkpt>
      <trkpt lat="48.37793" lon="7.27371">
        <ele>714</ele>
        <time>2017-10-23T22:51:16Z</time>
      </trkpt>
      <trkpt lat="48.37831" lon="7.27433">
        <ele>733</ele>
        <time>2017-10-23T22:53:16Z</time>
      </trkpt>
      <trkpt lat="48.37906" lon="7.2751">
        <ele>750</ele>
        <time>2017-10-23T22:55:16Z</time>
      </trkpt>
      <trkpt lat="48.37829" lon="7.27523">
        <ele>755</ele>
        <time>2017-10-23T22:57:16Z</time>
      </trkpt>
      <trkpt lat="48.37789" lon="7.27634">
        <ele>760</ele>
        <time>2017-10-23T22:59:16Z</time>
      </trkpt>
      <trkpt lat="48.37743" lon="7.2781">
        <ele>769</ele>
        <time>2017-10-23T23:01:16Z</time>
      </trkpt>
      <trkpt lat="48.37663" lon="7.27926">
        <ele>766</ele>
        <time>2017-10-23T23:03:16Z</time>
      </trkpt>
      <trkpt lat="48.37675" lon="7.28046">
        <ele>774</ele>
        <time>2017-10-23T23:05:16Z</time>
      </trkpt>
      <trkpt lat="48.37746" lon="7.28059">
        <ele>791</ele>
        <time>2017-10-23T23:07:16Z</time>
      </trkpt>
      <trkpt lat="48.3784" lon="7.28055">
        <ele>808</ele>
        <time>2017-10-23T23:09:16Z</time>
      </trkpt>
      <trkpt lat="48.37948" lon="7.28102">
        <ele>818</ele>
        <time>2017-10-23T23:11:16Z</time>
      </trkpt>
      <trkpt lat="48.38048" lon="7.28162">
        <ele>831</ele>
        <time>2017-10-23T23:13:16Z</time>
      </trkpt>
      <trkpt lat="48.38211" lon="7.28428">
        <ele>861</ele>
        <time>2017-10-23T23:15:16Z</time>
      </trkpt>
      <trkpt lat="48.38268" lon="7.28514">
        <ele>874</ele>
        <time>2017-10-23T23:17:16Z</time>
      </trkpt>
      <trkpt lat="48.38399" lon="7.28608">
        <ele>883</ele>
        <time>2017-10-23T23:19:16Z</time>
      </trkpt>
      <trkpt lat="48.38527" lon="7.28716">
        <ele>869</ele>
        <time>2017-10-23T23:21:16Z</time>
      </trkpt>
      <trkpt lat="48.38404" lon="7.28548">
        <ele>906</ele>
        <time>2017-10-23T23:23:16Z</time>
      </trkpt>
      <trkpt lat="48.3833" lon="7.28432">
        <ele>918</ele>
        <time>2017-10-23T23:25:16Z</time>
      </trkpt>
      <trkpt lat="48.38313" lon="7.28265">
        <ele>924</ele>
        <time>2017-10-23T23:27:16Z</time>
      </trkpt>
      <trkpt lat="48.38316" lon="7.28068">
        <ele>932</ele>
        <time>2017-10-23T23:29:16Z</time>
      </trkpt>
      <trkpt lat="48.38356" lon="7.28092">
        <ele>942</ele>
        <time>2017-10-23T23:31:16Z</time>
      </trkpt>
      <trkpt lat="48.38433" lon="7.28342">
        <ele>963</ele>
        <time>2017-10-23T23:33:16Z</time>
      </trkpt>
      <trkpt lat="48.38547" lon="7.28222">
        <ele>946</ele>
        <time>2017-10-23T23:35:16Z</time>
      </trkpt>
      <trkpt lat="48.38612" lon="7.281">
        <ele>923</ele>
        <time>2017-10-23T23:37:16Z</time>
      </trkpt>
      <trkpt lat="48.3865" lon="7.28061">
        <ele>917</ele>
        <time>2017-10-23T23:39:16Z</time>
      </trkpt>
      <trkpt lat="48.38689" lon="7.28038">
        <ele>912</ele>
        <time>2017-10-23T23:41:16Z</time>
      </trkpt>
      <trkpt lat="48.38763" lon="7.28242">
        <ele>901</ele>
        <time>2017-10-23T23:43:16Z</time>
      </trkpt>
      <trkpt lat="48.3883" lon="7.28452">
        <ele>892</ele>
        <time>2017-10-23T23:45:16Z</time>
      </trkpt>
      <trkpt lat="48.38889" lon="7.28694">
        <ele>876</ele>
        <time>2017-10-23T23:47:16Z</time>
      </trkpt>
      <trkpt lat="48.38913" lon="7.28733">
        <ele>872</ele>
        <time>2017-10-23T23:49:16Z</time>
      </trkpt>
      <trkpt lat="48.38946" lon="7.28804">
        <ele>866</ele>
        <time>2017-10-23T23:51:16Z</time>
      </trkpt>
      <trkpt lat="48.38928" lon="7.28597">
        <ele>869</ele>
        <time>2017-10-23T23:53:16Z</time>
      </trkpt>
      <trkpt lat="48.38933" lon="7.28554">
        <ele>870</ele>
        <time>2017-10-23T23:55:16Z</time>
      </trkpt>
      <trkpt lat="48.38979" lon="7.28654">
        <ele>860</ele>
        <time>2017-10-23T23:57:16Z</time>
      </trkpt>
      <trkpt lat="48.39087" lon="7.28883">
        <ele>836</ele>
        <time>2017-10-23T23:59:16Z</time>
      </trkpt>
      <trkpt lat="48.39085" lon="7.29047">
        <ele>826</ele>
        <time>2017-10-24T00:01:16Z</time>
      </trkpt>
      <trkpt lat="48.39057" lon="7.29141">
        <ele>818</ele>
        <time>2017-10-24T00:03:16Z</time>
      </trkpt>
      <trkpt lat="48.3896" lon="7.2923">
        <ele>805</ele>
        <time>2017-10-24T00:05:16Z</time>
      </trkpt>
      <trkpt lat="48.38815" lon="7.29306">
        <ele>781</ele>
        <time>2017-10-24T00:07:16Z</time>
      </trkpt>
      <trkpt lat="48.38756" lon="7.29411">
        <ele>770</ele>
        <time>2017-10-24T00:09:16Z</time>
      </trkpt>
      <trkpt lat="48.38696" lon="7.29546">
        <ele>768</ele>
        <time>2017-10-24T00:11:16Z</time>
      </trkpt>
      <trkpt lat="48.38592" lon="7.29849">
        <ele>806</ele>
        <time>2017-10-24T00:13:16Z</time>
      </trkpt>
      <trkpt lat="48.38504" lon="7.29997">
        <ele>819</ele>
        <time>2017-10-24T00:15:16Z</time>
      </trkpt>
      <trkpt lat="48.38399" lon="7.30089">
        <ele>823</ele>
        <time>2017-10-24T00:17:16Z</time>
      </trkpt>
      <trkpt lat="48.38364" lon="7.30244">
        <ele>823</ele>
        <time>2017-10-24T00:19:16Z</time>
      </trkpt>
      <trkpt lat="48.38413" lon="7.30583">
        <ele>828</ele>
        <time>2017-10-24T00:21:16Z</time>
      </trkpt>
      <trkpt lat="48.38473" lon="7.30977">
        <ele>844</ele>
        <time>2017-10-24T00:23:16Z</time>
      </trkpt>
      <trkpt lat="48.38431" lon="7.31052">
        <ele>849</ele>
        <time>2017-10-24T00:25:16Z</time>
      </trkpt>
      <trkpt lat="48.38354" lon="7.31091">
        <ele>851</ele>
        <time>2017-10-24T00:27:16Z</time>
      </trkpt>
      <trkpt lat="48.38427" lon="7.3125">
        <ele>850</ele>
        <time>2017-10-24T00:29:16Z</time>
      </trkpt>
      <trkpt lat="48.38501" lon="7.31196">
        <ele>847</ele>
        <time>2017-10-24T00:31:16Z</time>
      </trkpt>
      <trkpt lat="48.38531" lon="7.31286">
        <ele>843</ele>
        <time>2017-10-24T00:33:16Z</time>
      </trkpt>
      <trkpt lat="48.38491" lon="7.31496">
        <ele>833</ele>
        <time>2017-10-24T00:35:16Z</time>
      </trkpt>
      <trkpt lat="48.38367" lon="7.31651">
        <ele>824</ele>
        <time>2017-10-24T00:37:16Z</time>
      </trkpt>
      <trkpt lat="48.38282" lon="7.31707">
        <ele>823</ele>
        <time>2017-10-24T00:39:16Z</time>
      </trkpt>
      <trkpt lat="48.38165" lon="7.31861">
        <ele>808</ele>
        <time>2017-10-24T00:41:16Z</time>
      </trkpt>
      <trkpt lat="48.38105" lon="7.3202">
        <ele>798</ele>
        <time>2017-10-24T00:43:16Z</time>
      </trkpt>
      <trkpt lat="48.38074" lon="7.32239">
        <ele>784</ele>
        <time>2017-10-24T00:45:16Z</time>
      </trkpt>
      <trkpt lat="48.38065" lon="7.32651">
        <ele>765</ele>
        <time>2017-10-24T00:47:16Z</time>
      </trkpt>
      <trkpt lat="48.38038" lon="7.32679">
        <ele>760</ele>
        <time>2017-10-24T00:49:16Z</time>
      </trkpt>
      <trkpt lat="48.38002" lon="7.3255">
        <ele>751</ele>
        <time>2017-10-24T00:51:16Z</time>
      </trkpt>
      <trkpt lat="48.37965" lon="7.32531">
        <ele>749</ele>
        <time>2017-10-24T00:53:16Z</time>
      </trkpt>
      <trkpt lat="48.37926" lon="7.32462">
        <ele>735</ele>
        <time>2017-10-24T00:55:16Z</time>
      </trkpt>
      <trkpt lat="48.37863" lon="7.32381">
        <ele>720</ele>
        <time>2017-10-24T00:57:16Z</time>
      </trkpt>
      <trkpt lat="48.37729" lon="7.3223">
        <ele>684</ele>
        <time>2017-10-24T00:59:16Z</time>
      </trkpt>
      <trkpt lat="48.37609" lon="7.3211">
        <ele>673</ele>
        <time>2017-10-24T01:01:16Z</time>
      </trkpt>
      <trkpt lat="48.37501" lon="7.31943">
        <ele>652</ele>
        <time>2017-10-24T01:03:16Z</time>
      </trkpt>
      <trkpt lat="48.37373" lon="7.31664">
        <ele>593</ele>
        <time>2017-10-24T01:05:16Z</time>
      </trkpt>
      <trkpt lat="48.37264" lon="7.31625">
        <ele>579</ele>
        <time>2017-10-24T01:07:16Z</time>
      </trkpt>
      <trkpt lat="48.37179" lon="7.3163">
        <ele>566</ele>
        <time>2017-10-24T01:09:16Z</time>
      </trkpt>
      <trkpt lat="48.37117" lon="7.3157">
        <ele>550</ele>
        <time>2017-10-24T01:11:16Z</time>
      </trkpt>
      <trkpt lat="48.37075" lon="7.31471">
        <ele>549</ele>
        <time>2017-10-24T01:13:16Z</time>
      </trkpt>
      <trkpt lat="48.37039" lon="7.31419">
        <ele>551</ele>
        <time>2017-10-24T01:15:16Z</time>
      </trkpt>
      <trkpt lat="48.36928" lon="7.31419">
        <ele>551</ele>
        <time>2017-10-24T01:17:16Z</time>
      </trkpt>
      <trkpt lat="48.36851" lon="7.31394">
        <ele>548</ele>
        <time>2017-10-24T01:19:16Z</time>
      </trkpt>
      <trkpt lat="48.36771" lon="7.31381">
        <ele>538</ele>
        <time>2017-10-24T01:21:16Z</time>
      </trkpt>
      <trkpt lat="48.3668" lon="7.31282">
        <ele>530</ele>
        <time>2017-10-24T01:23:16Z</time>
      </trkpt>
      <trkpt lat="48.36517" lon="7.31012">
        <ele>488</ele>
        <time>2017-10-24T01:25:16Z</time>
      </trkpt>
      <trkpt lat="48.36417" lon="7.3096">
        <ele>466</ele>
        <time>2017-10-24T01:27:16Z</time>
      </trkpt>
      <trkpt lat="48.3625" lon="7.30941">
        <ele>448</ele>
        <time>2017-10-24T01:29:16Z</time>
      </trkpt>
      <trkpt lat="48.36192" lon="7.30959">
        <ele>443</ele>
        <time>2017-10-24T01:31:16Z</time>
      </trkpt>
      <trkpt lat="48.36246" lon="7.30774">
        <ele>456</ele>
        <time>2017-10-24T01:33:16Z</time>
      </trkpt>
      <trkpt lat="48.36355" lon="7.30569">
        <ele>420</ele>
        <time>2017-10-24T01:35:16Z</time>
      </trkpt>
      <trkpt lat="48.364" lon="7.30466">
        <ele>408</ele>
        <time>2017-10-24T01:37:16Z</time>
      </trkpt>
      <trkpt lat="48.36426" lon="7.30295">
        <ele>385</ele>
        <time>2017-10-24T01:39:16Z</time>
      </trkpt>
      <trkpt lat="48.364" lon="7.30172">
        <ele>379</ele>
        <time>2017-10-24T01:41:16Z</time>
      </trkpt>
      <trkpt lat="48.36368" lon="7.29969">
        <ele>375</ele>
        <time>2017-10-24T01:43:16Z</time>
      </trkpt>
      <trkpt lat="48.36365" lon="7.29722">
        <ele>386</ele>
        <time>2017-10-24T01:45:16Z</time>
      </trkpt>
      <trkpt lat="48.36411" lon="7.29557">
        <ele>365</ele>
        <time>2017-10-24T01:47:16Z</time>
      </trkpt>
      <trkpt lat="48.36461" lon="7.2951">
        <ele>359</ele>
        <time>2017-10-24T01:49:16Z</time>
      </trkpt>
      <trkpt lat="48.36499" lon="7.29401">
        <ele>357</ele>
        <time>2017-10-24T01:51:16Z</time>
      </trkpt>
      <trkpt lat="48.36496" lon="7.29389">
        <ele>358</ele>
        <time>2017-10-24T01:53:16Z</time>
      </trkpt>
      <trkpt lat="48.36526" lon="7.29374">
        <ele>362</ele>
        <time>2017-10-24T01:55:16Z</time>
      </trkpt>
      <trkpt lat="48.36512" lon="7.29357">
        <ele>363</ele>
        <time>2017-10-24T01:57:16Z</time>
      </trkpt>
      <trkpt lat="48.36501" lon="7.29343">
        <ele>364</ele>
        <time>2017-10-24T01:59:16Z</time>
      </trkpt>
      <trkpt lat="48.36498" lon="7.29285">
        <ele>366</ele>
        <time>2017-10-24T02:01:16Z</time>
      </trkpt>
      <trkpt lat="48.365" lon="7.29263">
        <ele>367</ele>
        <time>2017-10-24T02:03:16Z</time>
      </trkpt>
      <trkpt lat="48.3654" lon="7.29267">
        <ele>370</ele>
        <time>2017-10-24T02:05:16Z</time>
      </trkpt>
      <trkpt lat="48.3657" lon="7.29252">
        <ele>374</ele>
        <time>2017-10-24T02:07:16Z</time>
      </trkpt>
      <trkpt lat="48.36601" lon="7.29194">
        <ele>380</ele>
        <time>2017-10-24T02:09:16Z</time>
      </trkpt>
      <trkpt lat="48.36618" lon="7.29168">
        <ele>384</ele>
        <time>2017-10-24T02:11:16Z</time>
      </trkpt>
      <trkpt lat="48.36608" lon="7.29121">
        <ele>388</ele>
        <time>2017-10-24T02:13:16Z</time>
      </trkpt>
      <trkpt lat="48.36608" lon="7.29055">
        <ele>394</ele>
        <time>2017-10-24T02:15:16Z</time>
      </trkpt>
      <trkpt lat="48.36627" lon="7.28973">
        <ele>403</ele>
        <time>2017-10-24T02:17:16Z</time>
      </trkpt>
      <trkpt lat="48.36715" lon="7.2875">
        <ele>428</ele>
        <time>2017-10-24T02:19:16Z</time>
      </trkpt>
      <trkpt lat="48.36755" lon="7.2869">
        <ele>429</ele>
        <time>2017-10-24T02:21:16Z</time>
      </trkpt>
      <trkpt lat="48.36794" lon="7.28681">
        <ele>433</ele>
        <time>2017-10-24T02:23:16Z</time>
      </trkpt>
      <trkpt lat="48.36876" lon="7.2878">
        <ele>453</ele>
        <time>2017-10-24T02:25:16Z</time>
      </trkpt>
    </trkseg>
  </trk>
</gpx>